SAS1873 EKCH-ENZV
Flight info
| Callsign | SAS1873 |
|---|---|
| Flight time | 0h 53m |
| Altitude | 36000 |
| Route | GOLG3A GOLGA KOVIK RIVEX RIVE3R |
| Aircraft | A319/M-SDE3FGHIRWY/LB1 |
Departure
| Time | 2026-05-06 16:47 |
|---|---|
| Airport | Copenhagen Kastrup Airport (EKCH) |
Arrival
| Time | 2026-05-06 17:40 |
|---|---|
| Airport | Stavanger Airport, Sola (ENZV) |
| Time | Latitude | Longitude | Altitude | Speed | Heading |
|---|---|---|---|---|---|
| 2026-05-06 16:11 | 55.62783 | 12.64165 | 27 ft | 0 kts | 122° |
| 2026-05-06 16:34 | 55.62788 | 12.64151 | 24 ft | 3 kts | 122° |
| 2026-05-06 16:34 | 55.62799 | 12.64120 | 25 ft | 3 kts | 122° |
| 2026-05-06 16:34 | 55.62810 | 12.64090 | 26 ft | 2 kts | 123° |
| 2026-05-06 16:34 | 55.62819 | 12.64063 | 26 ft | 3 kts | 109° |
| 2026-05-06 16:35 | 55.62823 | 12.64027 | 25 ft | 3 kts | 92° |
| 2026-05-06 16:35 | 55.62824 | 12.63991 | 24 ft | 3 kts | 101° |
| 2026-05-06 16:35 | 55.62828 | 12.63961 | 24 ft | 3 kts | 104° |
| 2026-05-06 16:35 | 55.62833 | 12.63925 | 24 ft | 3 kts | 104° |
| 2026-05-06 16:36 | 55.62838 | 12.63890 | 26 ft | 3 kts | 104° |
| 2026-05-06 16:36 | 55.62839 | 12.63883 | 25 ft | 0 kts | 104° |
| 2026-05-06 16:39 | 55.62837 | 12.63895 | 24 ft | 3 kts | 104° |
| 2026-05-06 16:39 | 55.62826 | 12.63949 | 24 ft | 7 kts | 122° |
| 2026-05-06 16:39 | 55.62772 | 12.63949 | 26 ft | 10 kts | 213° |
| 2026-05-06 16:39 | 55.62703 | 12.63872 | 26 ft | 13 kts | 213° |
| 2026-05-06 16:40 | 55.62647 | 12.63878 | 24 ft | 10 kts | 134° |
| 2026-05-06 16:40 | 55.62603 | 12.63994 | 24 ft | 13 kts | 124° |
| 2026-05-06 16:40 | 55.62546 | 12.64148 | 24 ft | 17 kts | 123° |
| 2026-05-06 16:40 | 55.62469 | 12.64343 | 24 ft | 21 kts | 129° |
| 2026-05-06 16:41 | 55.62373 | 12.64579 | 24 ft | 26 kts | 123° |
| 2026-05-06 16:41 | 55.62302 | 12.64769 | 24 ft | 9 kts | 127° |
| 2026-05-06 16:41 | 55.62236 | 12.64797 | 26 ft | 8 kts | 185° |
| 2026-05-06 16:41 | 55.62214 | 12.64775 | 24 ft | 1 kts | 214° |
| 2026-05-06 16:42 | 55.62206 | 12.64764 | 24 ft | 2 kts | 213° |
| 2026-05-06 16:42 | 55.62183 | 12.64738 | 24 ft | 6 kts | 213° |
| 2026-05-06 16:42 | 55.62124 | 12.64670 | 26 ft | 15 kts | 213° |
| 2026-05-06 16:42 | 55.62018 | 12.64548 | 24 ft | 20 kts | 213° |
| 2026-05-06 16:43 | 55.61874 | 12.64517 | 24 ft | 23 kts | 169° |
| 2026-05-06 16:43 | 55.61720 | 12.64564 | 24 ft | 17 kts | 177° |
| 2026-05-06 16:43 | 55.61603 | 12.64480 | 25 ft | 20 kts | 212° |
| 2026-05-06 16:43 | 55.61476 | 12.64334 | 26 ft | 23 kts | 213° |
| 2026-05-06 16:44 | 55.61329 | 12.64166 | 25 ft | 27 kts | 213° |
| 2026-05-06 16:44 | 55.61163 | 12.63974 | 24 ft | 30 kts | 213° |
| 2026-05-06 16:44 | 55.60988 | 12.63773 | 26 ft | 23 kts | 213° |
| 2026-05-06 16:44 | 55.60897 | 12.63670 | 25 ft | 14 kts | 213° |
| 2026-05-06 16:45 | 55.60823 | 12.63592 | 25 ft | 10 kts | 197° |
| 2026-05-06 16:45 | 55.60762 | 12.63652 | 24 ft | 12 kts | 131° |
| 2026-05-06 16:45 | 55.60735 | 12.63704 | 25 ft | 2 kts | 131° |
| 2026-05-06 16:45 | 55.60732 | 12.63711 | 25 ft | 1 kts | 131° |
| 2026-05-06 16:46 | 55.60720 | 12.63735 | 24 ft | 4 kts | 131° |
| 2026-05-06 16:46 | 55.60695 | 12.63793 | 27 ft | 7 kts | 122° |
| 2026-05-06 16:46 | 55.60700 | 12.63902 | 27 ft | 17 kts | 49° |
| 2026-05-06 16:46 | 55.60880 | 12.64184 | 25 ft | 62 kts | 41° |
| 2026-05-06 16:47 | 55.61359 | 12.64921 | 28 ft | 120 kts | 41° |
| 2026-05-06 16:47 | 55.62118 | 12.66096 | 75 ft | 164 kts | 40° |
| 2026-05-06 16:47 | 55.62968 | 12.67400 | 752 ft | 160 kts | 48° |
| 2026-05-06 16:47 | 55.63785 | 12.68689 | 1601 ft | 155 kts | 49° |
| 2026-05-06 16:48 | 55.64593 | 12.69955 | 2322 ft | 155 kts | 46° |
| 2026-05-06 16:48 | 55.65467 | 12.71082 | 2921 ft | 161 kts | 27° |
| 2026-05-06 16:48 | 55.66625 | 12.71236 | 3357 ft | 185 kts | 345° |
| 2026-05-06 16:48 | 55.67754 | 12.69855 | 3736 ft | 209 kts | 320° |
| 2026-05-06 16:49 | 55.68894 | 12.68017 | 4123 ft | 235 kts | 319° |
| 2026-05-06 16:49 | 55.70152 | 12.65950 | 4698 ft | 258 kts | 319° |
| 2026-05-06 16:49 | 55.71508 | 12.63722 | 5506 ft | 270 kts | 319° |
| 2026-05-06 16:49 | 55.72901 | 12.61462 | 6565 ft | 272 kts | 320° |
| 2026-05-06 16:50 | 55.74310 | 12.59191 | 7582 ft | 274 kts | 319° |
| 2026-05-06 16:50 | 55.75731 | 12.56909 | 8585 ft | 277 kts | 319° |
| 2026-05-06 16:50 | 55.77172 | 12.54620 | 9622 ft | 279 kts | 319° |
| 2026-05-06 16:50 | 55.78667 | 12.52356 | 10344 ft | 291 kts | 319° |
| 2026-05-06 16:51 | 55.80284 | 12.49961 | 10649 ft | 314 kts | 319° |
| 2026-05-06 16:51 | 55.82008 | 12.47421 | 11137 ft | 327 kts | 319° |
| 2026-05-06 16:51 | 55.83776 | 12.44808 | 11848 ft | 332 kts | 319° |
| 2026-05-06 16:51 | 55.85560 | 12.42158 | 12597 ft | 337 kts | 319° |
| 2026-05-06 16:52 | 55.87369 | 12.39457 | 13281 ft | 342 kts | 318° |
| 2026-05-06 16:52 | 55.89203 | 12.36706 | 13979 ft | 346 kts | 318° |
| 2026-05-06 16:52 | 55.91053 | 12.33926 | 14636 ft | 350 kts | 318° |
| 2026-05-06 16:52 | 55.92897 | 12.31155 | 15300 ft | 353 kts | 318° |
| 2026-05-06 16:53 | 55.94782 | 12.28318 | 15979 ft | 356 kts | 317° |
| 2026-05-06 16:53 | 55.96681 | 12.25456 | 16671 ft | 359 kts | 317° |
| 2026-05-06 16:53 | 55.98599 | 12.22559 | 17354 ft | 363 kts | 317° |
| 2026-05-06 16:53 | 56.00531 | 12.19627 | 18026 ft | 366 kts | 315° |
| 2026-05-06 16:54 | 56.02224 | 12.16248 | 18615 ft | 366 kts | 305° |
| 2026-05-06 16:54 | 56.03800 | 12.12649 | 19221 ft | 369 kts | 304° |
| 2026-05-06 16:54 | 56.05381 | 12.09021 | 19831 ft | 371 kts | 304° |
| 2026-05-06 16:54 | 56.06980 | 12.05362 | 20442 ft | 374 kts | 305° |
| 2026-05-06 16:55 | 56.08617 | 12.01713 | 21054 ft | 378 kts | 305° |
| 2026-05-06 16:55 | 56.10295 | 11.98061 | 21639 ft | 381 kts | 306° |
| 2026-05-06 16:55 | 56.11990 | 11.94402 | 22206 ft | 384 kts | 306° |
| 2026-05-06 16:55 | 56.13701 | 11.90702 | 22753 ft | 386 kts | 305° |
| 2026-05-06 16:56 | 56.15418 | 11.86970 | 23298 ft | 389 kts | 305° |
| 2026-05-06 16:56 | 56.17138 | 11.83202 | 23779 ft | 392 kts | 304° |
| 2026-05-06 16:56 | 56.18863 | 11.79395 | 24206 ft | 395 kts | 304° |
| 2026-05-06 16:56 | 56.20598 | 11.75547 | 24622 ft | 398 kts | 304° |
| 2026-05-06 16:57 | 56.22349 | 11.71666 | 25038 ft | 401 kts | 304° |
| 2026-05-06 16:57 | 56.24112 | 11.67753 | 25444 ft | 404 kts | 304° |
| 2026-05-06 16:57 | 56.25887 | 11.63811 | 25850 ft | 408 kts | 304° |
| 2026-05-06 16:57 | 56.27681 | 11.59837 | 26256 ft | 411 kts | 304° |
| 2026-05-06 16:58 | 56.29493 | 11.55828 | 26663 ft | 414 kts | 304° |
| 2026-05-06 16:58 | 56.31317 | 11.51790 | 27101 ft | 417 kts | 303° |
| 2026-05-06 16:58 | 56.33149 | 11.47722 | 27532 ft | 419 kts | 303° |
| 2026-05-06 16:58 | 56.34988 | 11.43623 | 27936 ft | 422 kts | 302° |
| 2026-05-06 16:59 | 56.36838 | 11.39485 | 28326 ft | 425 kts | 302° |
| 2026-05-06 16:59 | 56.38701 | 11.35315 | 28709 ft | 428 kts | 302° |
| 2026-05-06 16:59 | 56.40575 | 11.31122 | 29083 ft | 431 kts | 302° |
| 2026-05-06 16:59 | 56.42468 | 11.26888 | 29450 ft | 434 kts | 302° |
| 2026-05-06 17:00 | 56.44369 | 11.22625 | 29805 ft | 437 kts | 302° |
| 2026-05-06 17:00 | 56.46251 | 11.18386 | 30136 ft | 439 kts | 302° |
| 2026-05-06 17:00 | 56.48192 | 11.14002 | 30447 ft | 442 kts | 302° |
| 2026-05-06 17:00 | 56.50089 | 11.09712 | 30754 ft | 444 kts | 302° |
| 2026-05-06 17:01 | 56.52020 | 11.05334 | 31066 ft | 445 kts | 302° |
| 2026-05-06 17:01 | 56.53951 | 11.00949 | 31491 ft | 444 kts | 302° |
| 2026-05-06 17:01 | 56.55874 | 10.96586 | 31940 ft | 443 kts | 302° |
| 2026-05-06 17:01 | 56.57796 | 10.92221 | 32388 ft | 442 kts | 302° |
| 2026-05-06 17:02 | 56.59706 | 10.87871 | 32836 ft | 440 kts | 303° |
| 2026-05-06 17:02 | 56.61608 | 10.83526 | 33287 ft | 439 kts | 303° |
| 2026-05-06 17:02 | 56.63501 | 10.79189 | 33739 ft | 438 kts | 303° |
| 2026-05-06 17:02 | 56.65387 | 10.74859 | 34168 ft | 437 kts | 302° |
| 2026-05-06 17:03 | 56.67274 | 10.70524 | 34539 ft | 436 kts | 302° |
| 2026-05-06 17:03 | 56.69154 | 10.66194 | 34896 ft | 436 kts | 303° |
| 2026-05-06 17:03 | 56.71029 | 10.61866 | 35176 ft | 436 kts | 303° |
| 2026-05-06 17:03 | 56.72903 | 10.57533 | 35425 ft | 435 kts | 303° |
| 2026-05-06 17:04 | 56.74774 | 10.53206 | 35699 ft | 435 kts | 303° |
| 2026-05-06 17:04 | 56.76647 | 10.48874 | 35896 ft | 435 kts | 303° |
| 2026-05-06 17:04 | 56.78516 | 10.44546 | 35950 ft | 433 kts | 303° |
| 2026-05-06 17:05 | 56.82228 | 10.35919 | 35950 ft | 432 kts | 303° |
| 2026-05-06 17:05 | 56.85897 | 10.27333 | 35952 ft | 431 kts | 302° |
| 2026-05-06 17:06 | 56.89585 | 10.18685 | 35952 ft | 431 kts | 302° |
| 2026-05-06 17:06 | 56.93268 | 10.10018 | 35956 ft | 431 kts | 302° |
| 2026-05-06 17:07 | 56.96941 | 10.01343 | 35991 ft | 431 kts | 302° |
| 2026-05-06 17:07 | 57.00601 | 9.92662 | 36008 ft | 430 kts | 302° |
| 2026-05-06 17:08 | 57.04250 | 9.83991 | 35998 ft | 429 kts | 302° |
| 2026-05-06 17:08 | 57.07888 | 9.75311 | 35988 ft | 428 kts | 302° |
| 2026-05-06 17:09 | 57.11511 | 9.66626 | 35973 ft | 428 kts | 302° |
| 2026-05-06 17:09 | 57.15125 | 9.57925 | 35967 ft | 428 kts | 302° |
| 2026-05-06 17:10 | 57.18736 | 9.49209 | 35995 ft | 427 kts | 302° |
| 2026-05-06 17:10 | 57.22331 | 9.40492 | 35988 ft | 427 kts | 302° |
| 2026-05-06 17:11 | 57.25919 | 9.31768 | 35980 ft | 426 kts | 301° |
| 2026-05-06 17:11 | 57.29501 | 9.23037 | 35983 ft | 426 kts | 301° |
| 2026-05-06 17:12 | 57.33071 | 9.14289 | 35999 ft | 426 kts | 301° |
| 2026-05-06 17:12 | 57.36632 | 9.05536 | 35994 ft | 425 kts | 301° |
| 2026-05-06 17:13 | 57.40185 | 8.96773 | 36008 ft | 425 kts | 301° |
| 2026-05-06 17:13 | 57.43728 | 8.87997 | 35998 ft | 424 kts | 301° |
| 2026-05-06 17:14 | 57.47263 | 8.79222 | 35987 ft | 424 kts | 301° |
| 2026-05-06 17:14 | 57.50766 | 8.70486 | 35981 ft | 424 kts | 301° |
| 2026-05-06 17:15 | 57.54279 | 8.61674 | 35980 ft | 424 kts | 301° |
| 2026-05-06 17:15 | 57.57829 | 8.52899 | 35977 ft | 425 kts | 302° |
| 2026-05-06 17:16 | 57.61566 | 8.44336 | 35996 ft | 426 kts | 304° |
| 2026-05-06 17:16 | 57.65347 | 8.35821 | 35996 ft | 426 kts | 304° |
| 2026-05-06 17:16 | 57.67224 | 8.31536 | 35748 ft | 426 kts | 303° |
| 2026-05-06 17:17 | 57.69083 | 8.27242 | 35504 ft | 425 kts | 303° |
| 2026-05-06 17:17 | 57.70929 | 8.22936 | 35255 ft | 424 kts | 302° |
| 2026-05-06 17:17 | 57.72766 | 8.18628 | 35014 ft | 423 kts | 302° |
| 2026-05-06 17:17 | 57.74599 | 8.14323 | 34776 ft | 423 kts | 302° |
| 2026-05-06 17:18 | 57.76432 | 8.10024 | 34538 ft | 422 kts | 302° |
| 2026-05-06 17:18 | 57.78262 | 8.05735 | 34303 ft | 421 kts | 302° |
| 2026-05-06 17:18 | 57.80091 | 8.01454 | 33768 ft | 420 kts | 302° |
| 2026-05-06 17:18 | 57.81913 | 7.97181 | 32985 ft | 421 kts | 302° |
| 2026-05-06 17:19 | 57.83745 | 7.92868 | 32082 ft | 424 kts | 302° |
| 2026-05-06 17:19 | 57.85589 | 7.88513 | 31149 ft | 428 kts | 302° |
| 2026-05-06 17:19 | 57.87432 | 7.84157 | 30654 ft | 422 kts | 302° |
| 2026-05-06 17:19 | 57.89251 | 7.79860 | 30102 ft | 417 kts | 302° |
| 2026-05-06 17:20 | 57.91044 | 7.75619 | 29491 ft | 412 kts | 302° |
| 2026-05-06 17:20 | 57.92813 | 7.71429 | 28952 ft | 406 kts | 302° |
| 2026-05-06 17:20 | 57.94550 | 7.67301 | 28413 ft | 400 kts | 302° |
| 2026-05-06 17:20 | 57.96261 | 7.63219 | 27886 ft | 394 kts | 302° |
| 2026-05-06 17:21 | 57.97950 | 7.59186 | 27385 ft | 389 kts | 302° |
| 2026-05-06 17:21 | 57.99617 | 7.55202 | 26832 ft | 385 kts | 302° |
| 2026-05-06 17:21 | 58.01264 | 7.51261 | 26308 ft | 380 kts | 302° |
| 2026-05-06 17:21 | 58.02889 | 7.47361 | 25810 ft | 376 kts | 302° |
| 2026-05-06 17:22 | 58.04495 | 7.43493 | 25311 ft | 372 kts | 302° |
| 2026-05-06 17:22 | 58.06080 | 7.39670 | 24825 ft | 369 kts | 303° |
| 2026-05-06 17:22 | 58.07656 | 7.35865 | 24358 ft | 366 kts | 303° |
| 2026-05-06 17:22 | 58.09218 | 7.32092 | 23874 ft | 363 kts | 303° |
| 2026-05-06 17:23 | 58.10766 | 7.28341 | 23408 ft | 361 kts | 303° |
| 2026-05-06 17:23 | 58.12302 | 7.24617 | 22936 ft | 357 kts | 303° |
| 2026-05-06 17:23 | 58.13813 | 7.20949 | 22494 ft | 351 kts | 303° |
| 2026-05-06 17:23 | 58.15302 | 7.17328 | 22074 ft | 346 kts | 303° |
| 2026-05-06 17:24 | 58.16769 | 7.13754 | 21669 ft | 341 kts | 303° |
| 2026-05-06 17:24 | 58.18213 | 7.10231 | 21260 ft | 336 kts | 303° |
| 2026-05-06 17:24 | 58.19157 | 7.07928 | 20990 ft | 333 kts | 304° |
| 2026-05-06 17:24 | 58.20568 | 7.04475 | 20472 ft | 332 kts | 303° |
| 2026-05-06 17:25 | 58.21967 | 7.00942 | 19666 ft | 338 kts | 303° |
| 2026-05-06 17:25 | 58.23365 | 6.97324 | 19084 ft | 338 kts | 302° |
| 2026-05-06 17:25 | 58.25179 | 6.92587 | 18532 ft | 332 kts | 302° |
| 2026-05-06 17:25 | 58.26091 | 6.90201 | 18219 ft | 330 kts | 303° |
| 2026-05-06 17:26 | 58.27431 | 6.86696 | 17718 ft | 326 kts | 303° |
| 2026-05-06 17:26 | 58.28752 | 6.83239 | 17268 ft | 321 kts | 303° |
| 2026-05-06 17:26 | 58.30054 | 6.79822 | 16846 ft | 317 kts | 302° |
| 2026-05-06 17:26 | 58.31341 | 6.76439 | 16373 ft | 314 kts | 302° |
| 2026-05-06 17:27 | 58.32616 | 6.73092 | 15926 ft | 310 kts | 302° |
| 2026-05-06 17:27 | 58.33875 | 6.69781 | 15470 ft | 308 kts | 302° |
| 2026-05-06 17:27 | 58.35132 | 6.66472 | 14992 ft | 307 kts | 303° |
| 2026-05-06 17:27 | 58.36379 | 6.63191 | 14549 ft | 305 kts | 303° |
| 2026-05-06 17:28 | 58.37621 | 6.59925 | 14102 ft | 303 kts | 303° |
| 2026-05-06 17:28 | 58.38847 | 6.56685 | 13645 ft | 300 kts | 303° |
| 2026-05-06 17:28 | 58.40062 | 6.53471 | 13187 ft | 297 kts | 303° |
| 2026-05-06 17:28 | 58.41264 | 6.50287 | 12751 ft | 294 kts | 303° |
| 2026-05-06 17:29 | 58.42438 | 6.47168 | 12334 ft | 292 kts | 303° |
| 2026-05-06 17:29 | 58.43619 | 6.44027 | 11910 ft | 290 kts | 303° |
| 2026-05-06 17:29 | 58.44793 | 6.40905 | 11482 ft | 288 kts | 303° |
| 2026-05-06 17:29 | 58.45961 | 6.37794 | 11018 ft | 288 kts | 304° |
| 2026-05-06 17:30 | 58.47128 | 6.34686 | 10587 ft | 288 kts | 304° |
| 2026-05-06 17:30 | 58.48293 | 6.31587 | 10164 ft | 286 kts | 304° |
| 2026-05-06 17:30 | 58.49450 | 6.28498 | 9721 ft | 285 kts | 304° |
| 2026-05-06 17:30 | 58.50599 | 6.25425 | 9280 ft | 283 kts | 304° |
| 2026-05-06 17:31 | 58.51740 | 6.22370 | 8872 ft | 281 kts | 305° |
| 2026-05-06 17:31 | 58.52882 | 6.19304 | 8284 ft | 285 kts | 305° |
| 2026-05-06 17:31 | 58.54032 | 6.16213 | 7796 ft | 285 kts | 306° |
| 2026-05-06 17:31 | 58.55176 | 6.13132 | 7332 ft | 283 kts | 306° |
| 2026-05-06 17:32 | 58.56314 | 6.10066 | 6890 ft | 282 kts | 306° |
| 2026-05-06 17:32 | 58.57447 | 6.07009 | 6465 ft | 280 kts | 306° |
| 2026-05-06 17:32 | 58.58572 | 6.03971 | 6072 ft | 277 kts | 307° |
| 2026-05-06 17:32 | 58.59659 | 6.01028 | 5937 ft | 265 kts | 307° |
| 2026-05-06 17:33 | 58.60705 | 5.98198 | 5769 ft | 256 kts | 307° |
| 2026-05-06 17:33 | 58.61728 | 5.95431 | 5495 ft | 251 kts | 307° |
| 2026-05-06 17:33 | 58.62727 | 5.92724 | 5087 ft | 247 kts | 308° |
| 2026-05-06 17:33 | 58.63718 | 5.90033 | 4585 ft | 247 kts | 308° |
| 2026-05-06 17:34 | 58.64680 | 5.87394 | 4396 ft | 236 kts | 306° |
| 2026-05-06 17:34 | 58.65586 | 5.84825 | 4006 ft | 234 kts | 306° |
| 2026-05-06 17:34 | 58.66475 | 5.82251 | 3777 ft | 226 kts | 306° |
| 2026-05-06 17:34 | 58.67316 | 5.79811 | 3679 ft | 212 kts | 307° |
| 2026-05-06 17:35 | 58.68108 | 5.77534 | 3600 ft | 198 kts | 308° |
| 2026-05-06 17:35 | 58.68887 | 5.75383 | 3525 ft | 195 kts | 310° |
| 2026-05-06 17:35 | 58.69752 | 5.73388 | 3457 ft | 193 kts | 317° |
| 2026-05-06 17:36 | 58.71698 | 5.69883 | 3100 ft | 190 kts | 320° |
| 2026-05-06 17:36 | 58.72669 | 5.68187 | 2835 ft | 187 kts | 320° |
| 2026-05-06 17:36 | 58.73636 | 5.66548 | 2593 ft | 184 kts | 322° |
| 2026-05-06 17:36 | 58.74607 | 5.65033 | 2484 ft | 170 kts | 327° |
| 2026-05-06 17:37 | 58.75644 | 5.64307 | 2385 ft | 155 kts | 350° |
| 2026-05-06 17:37 | 58.76690 | 5.64063 | 2220 ft | 148 kts | 354° |
| 2026-05-06 17:37 | 58.77744 | 5.63992 | 2048 ft | 153 kts | 357° |
| 2026-05-06 17:37 | 58.78795 | 5.63993 | 1840 ft | 150 kts | 359° |
| 2026-05-06 17:38 | 58.79817 | 5.64030 | 1579 ft | 144 kts | 358° |
| 2026-05-06 17:38 | 58.80783 | 5.64013 | 1385 ft | 134 kts | 356° |
| 2026-05-06 17:38 | 58.81691 | 5.63962 | 1191 ft | 127 kts | 356° |
| 2026-05-06 17:38 | 58.82561 | 5.63935 | 1032 ft | 125 kts | 356° |
| 2026-05-06 17:39 | 58.83440 | 5.63897 | 826 ft | 126 kts | 355° |
| 2026-05-06 17:39 | 58.84303 | 5.63854 | 669 ft | 124 kts | 355° |
| 2026-05-06 17:39 | 58.85169 | 5.63845 | 467 ft | 126 kts | 356° |
| 2026-05-06 17:39 | 58.86045 | 5.63836 | 308 ft | 126 kts | 357° |
| 2026-05-06 17:40 | 58.86909 | 5.63807 | 125 ft | 123 kts | 355° |
| 2026-05-06 17:40 | 58.87737 | 5.63792 | 40 ft | 109 kts | 354° |
| 2026-05-06 17:40 | 58.88381 | 5.63762 | 30 ft | 70 kts | 359° |
| 2026-05-06 17:40 | 58.88639 | 5.63755 | 29 ft | 19 kts | 359° |
| 2026-05-06 17:41 | 58.88707 | 5.63675 | 28 ft | 15 kts | 277° |
| 2026-05-06 17:41 | 58.88708 | 5.63538 | 31 ft | 5 kts | 269° |
| 2026-05-06 17:41 | 58.88707 | 5.63473 | 32 ft | 6 kts | 269° |
| 2026-05-06 17:41 | 58.88675 | 5.63418 | 32 ft | 9 kts | 180° |
| 2026-05-06 17:42 | 58.88602 | 5.63420 | 31 ft | 12 kts | 179° |
| 2026-05-06 17:42 | 58.88507 | 5.63422 | 31 ft | 13 kts | 179° |
| 2026-05-06 17:42 | 58.88413 | 5.63426 | 29 ft | 15 kts | 179° |
| 2026-05-06 17:42 | 58.88316 | 5.63428 | 31 ft | 9 kts | 180° |
| 2026-05-06 17:43 | 58.88275 | 5.63350 | 32 ft | 9 kts | 259° |
| 2026-05-06 17:43 | 58.88213 | 5.63301 | 30 ft | 9 kts | 173° |
| 2026-05-06 17:43 | 58.88140 | 5.63277 | 29 ft | 13 kts | 201° |
| 2026-05-06 17:43 | 58.88074 | 5.63184 | 28 ft | 6 kts | 224° |
| 2026-05-06 17:44 | 58.88088 | 5.63102 | 26 ft | 8 kts | 315° |
| 2026-05-06 17:44 | 58.88117 | 5.63046 | 25 ft | 3 kts | 315° |
| 2026-05-06 17:44 | 58.88127 | 5.63025 | 25 ft | 2 kts | 315° |
| 2026-05-06 17:44 | 58.88128 | 5.63023 | 25 ft | 0 kts | 315° |